Time;durP1;ratioP1;P1;durP2;ratioP2;P2;SDS_P1;SDS_P2;PMS_P1;PMS_P2;Temp;Humidity;BMP_temperature;BMP_pressure;BME280_temperature;BME280_humidity;BME280_pressure;Samples;Min_cycle;Max_cycle;Signal;HPM_P1;HPM_P2
2022/05/24 00:00:25;;;;;;;3.63;1.13;;;15.90;99.90;;;;;;5076733;27;20052;-83
2022/05/24 00:02:54;;;;;;;4.22;1.60;;;16.00;99.90;;;;;;5074369;27;20058;-83
2022/05/24 00:05:26;;;;;;;2.38;1.13;;;16.00;99.90;;;;;;5079416;27;20051;-83
2022/05/24 00:08:00;;;;;;;;;;;15.90;99.90;;;;;;5084694;27;21217;-82
2022/05/24 00:10:33;;;;;;;3.67;0.77;;;15.90;99.90;;;;;;5076032;27;21281;-83
2022/05/24 00:13:17;;;;;;;2.20;0.95;;;15.90;99.90;;;;;;5073204;27;20045;-83
2022/05/24 00:15:55;;;;;;;1.27;0.88;;;15.80;99.90;;;;;;5090989;27;20040;-83
2022/05/24 00:18:29;;;;;;;0.68;0.65;;;15.80;99.90;;;;;;5074473;27;20044;-83
2022/05/24 00:21:07;;;;;;;2.95;2.03;;;15.80;99.90;;;;;;5082635;27;20044;-83
2022/05/24 00:23:35;;;;;;;6.18;1.50;;;16.50;99.90;;;;;;5070073;27;20043;-84
2022/05/24 00:26:09;;;;;;;5.03;1.15;;;15.90;99.90;;;;;;5069020;27;20139;-83
2022/05/24 00:28:36;;;;;;;1.05;0.70;;;15.90;99.90;;;;;;5068802;27;20158;-83
2022/05/24 00:31:08;;;;;;;2.20;1.42;;;15.90;99.90;;;;;;5069414;27;20850;-83
2022/05/24 00:33:39;;;;;;;2.97;1.20;;;16.00;99.90;;;;;;5087159;27;20078;-84
2022/05/24 00:36:17;;;;;;;5.07;1.70;;;15.70;99.90;;;;;;5070318;27;20043;-83
2022/05/24 00:38:46;;;;;;;2.00;1.20;;;15.70;99.90;;;;;;5070567;27;20044;-83
2022/05/24 00:41:26;;;;;;;5.45;1.33;;;15.70;99.90;;;;;;5070175;27;20092;-83
2022/05/24 00:44:21;;;;;;;5.78;1.23;;;15.20;99.90;;;;;;5073500;27;20056;-83
2022/05/24 00:47:31;;;;;;;7.55;1.90;;;15.70;99.90;;;;;;5057468;27;20048;-83
2022/05/24 00:50:18;;;;;;;3.53;1.52;;;15.60;99.90;;;;;;5021586;27;20052;-83
2022/05/24 00:53:02;;;;;;;3.70;1.63;;;15.60;99.90;;;;;;5084559;27;20427;-84
2022/05/24 00:55:36;;;;;;;2.65;1.33;;;15.60;99.90;;;;;;5068209;27;20080;-83
2022/05/24 00:58:13;;;;;;;3.63;1.15;;;15.60;99.90;;;;;;5067185;27;20600;-83
2022/05/24 01:00:50;;;;;;;3.33;1.40;;;15.60;99.90;;;;;;5072653;27;20048;-83
2022/05/24 01:03:23;;;;;;;5.25;1.35;;;15.20;99.90;;;;;;5066521;27;20049;-84
2022/05/24 01:06:05;;;;;;;;;;;;;;;;;;;;;
2022/05/24 01:08:42;;;;;;;3.33;1.63;;;14.80;99.90;;;;;;5082776;27;43530;-83
2022/05/24 01:11:10;;;;;;;4.80;1.60;;;15.60;99.90;;;;;;5067342;27;20482;-83
2022/05/24 01:13:51;;;;;;;4.03;1.10;;;15.60;99.90;;;;;;5071754;27;20842;-84
2022/05/24 01:16:32;;;;;;;2.50;1.10;;;15.50;99.90;;;;;;5072345;27;20056;-83
2022/05/24 01:19:14;;;;;;;3.33;1.25;;;15.50;99.90;;;;;;5073985;27;20044;-83
2022/05/24 01:21:49;;;;;;;5.35;1.30;;;15.50;99.90;;;;;;5084777;27;20043;-83
2022/05/24 01:24:39;;;;;;;2.30;1.05;;;15.40;99.90;;;;;;5066180;27;20056;-82
2022/05/24 01:27:27;;;;;;;5.72;1.75;;;15.20;99.90;;;;;;5066918;27;20037;-83
2022/05/24 01:30:22;;;;;;;1.23;1.10;;;15.40;99.90;;;;;;5052187;27;20055;-83
2022/05/24 01:38:46;;;;;;;4.13;1.20;;;15.50;99.90;;;;;;5084521;27;20525;-83
2022/05/24 01:41:19;;;;;;;4.65;1.40;;;15.60;99.90;;;;;;5069427;27;20048;-83
2022/05/24 01:43:53;;;;;;;3.90;0.90;;;15.60;99.90;;;;;;5070437;27;20040;-83
2022/05/24 01:46:45;;;;;;;3.92;1.20;;;15.30;99.90;;;;;;5075093;27;20107;-83
2022/05/24 01:49:42;;;;;;;4.57;1.58;;;15.70;99.90;;;;;;5069507;27;20909;-83
2022/05/24 01:52:26;;;;;;;3.15;1.20;;;16.10;99.90;;;;;;5058594;27;20106;-84
2022/05/24 01:55:07;;;;;;;2.83;1.10;;;15.70;99.90;;;;;;5070023;27;20041;-84
2022/05/24 01:58:10;;;;;;;1.92;1.10;;;15.70;99.90;;;;;;5068749;27;20509;-84
2022/05/24 02:00:56;;;;;;;1.40;1.08;;;15.60;99.90;;;;;;5067586;27;20058;-84
2022/05/24 02:03:30;;;;;;;5.53;1.30;;;15.60;99.90;;;;;;5069183;27;20628;-83
2022/05/24 02:06:02;;;;;;;3.30;1.08;;;15.50;99.90;;;;;;5068166;27;20044;-84
2022/05/24 02:08:33;;;;;;;3.85;0.90;;;15.50;99.90;;;;;;5069655;27;20122;-83
2022/05/24 02:11:06;;;;;;;2.22;1.00;;;15.50;99.90;;;;;;5067943;27;20493;-83
2022/05/24 02:13:48;;;;;;;2.38;1.08;;;15.40;99.90;;;;;;5086505;27;20044;-83
2022/05/24 02:16:22;;;;;;;3.20;0.90;;;15.40;99.90;;;;;;5068749;27;20043;-84
2022/05/24 02:19:00;;;;;;;2.75;0.95;;;15.40;99.90;;;;;;5062348;27;20048;-83
2022/05/24 02:21:42;;;;;;;3.58;1.08;;;15.40;99.90;;;;;;5069512;27;20462;-83
2022/05/24 02:24:28;;;;;;;1.90;1.05;;;15.20;99.90;;;;;;5070738;27;20040;-83
2022/05/24 02:27:00;;;;;;;5.95;1.20;;;15.40;99.90;;;;;;5069438;27;20457;-83
2022/05/24 02:29:31;;;;;;;2.42;1.00;;;14.80;99.90;;;;;;5068029;27;20044;-83
2022/05/24 02:32:28;;;;;;;1.08;0.90;;;15.40;99.90;;;;;;5085562;27;20082;-83
2022/05/24 02:35:07;;;;;;;2.15;1.27;;;15.30;99.90;;;;;;5068875;27;20133;-83
2022/05/24 02:37:49;;;;;;;1.90;0.85;;;15.30;99.90;;;;;;5069298;27;20123;-83
2022/05/24 02:43:35;;;;;;;1.25;1.00;;;15.20;99.90;;;;;;5085080;27;20583;-83
2022/05/24 02:46:03;;;;;;;2.22;1.10;;;15.10;99.90;;;;;;5089581;27;20113;-82
2022/05/24 02:48:39;;;;;;;4.28;1.00;;;15.30;99.90;;;;;;5088440;27;20063;-83
2022/05/24 02:51:12;;;;;;;0.73;0.73;;;14.90;99.90;;;;;;5081851;27;20139;-83
2022/05/24 02:53:45;;;;;;;1.30;0.73;;;14.90;99.90;;;;;;5076413;27;20048;-83
2022/05/24 02:56:15;;;;;;;3.47;2.13;;;14.80;99.90;;;;;;5067500;27;20130;-83
2022/05/24 02:58:55;;;;;;;3.70;2.08;;;14.80;99.90;;;;;;5068938;27;20106;-83
2022/05/24 03:01:32;;;;;;;3.55;1.27;;;14.70;99.90;;;;;;5067914;27;20506;-84
2022/05/24 03:04:01;;;;;;;2.75;0.90;;;15.30;99.90;;;;;;5075742;27;20044;-84
2022/05/24 03:09:36;;;;;;;2.92;1.15;;;14.70;99.90;;;;;;5087313;27;20074;-84
2022/05/24 03:15:02;;;;;;;3.65;0.90;;;14.60;99.90;;;;;;5088628;27;20053;-84
2022/05/24 03:17:43;;;;;;;4.80;1.02;;;14.70;99.90;;;;;;5070060;27;20600;-84
2022/05/24 03:20:25;;;;;;;1.35;0.98;;;14.40;99.90;;;;;;5090173;27;20036;-84
2022/05/24 03:23:07;;;;;;;1.33;0.80;;;14.60;99.90;;;;;;5068128;27;20055;-84
2022/05/24 03:25:40;;;;;;;3.20;1.35;;;14.60;99.90;;;;;;5074633;27;20479;-83
2022/05/24 03:28:20;;;;;;;3.45;1.13;;;14.50;99.90;;;;;;5070686;27;20048;-84
2022/05/24 03:30:49;;;;;;;4.97;1.10;;;14.50;99.90;;;;;;5087070;27;20044;-84
2022/05/24 03:33:27;;;;;;;9.75;1.30;;;14.30;99.90;;;;;;5069526;27;20127;-82
2022/05/24 03:36:27;;;;;;;3.50;1.50;;;14.30;99.90;;;;;;5074561;27;20146;-83
2022/05/24 03:39:02;;;;;;;1.75;0.82;;;14.40;99.90;;;;;;5068194;27;21048;-84
2022/05/24 03:41:33;;;;;;;2.35;1.05;;;14.40;99.90;;;;;;5064611;27;20068;-83
2022/05/24 03:44:03;;;;;;;1.30;0.93;;;14.60;99.90;;;;;;5066291;27;20074;-83
2022/05/24 03:46:37;;;;;;;1.85;0.90;;;15.00;99.90;;;;;;5071208;28;20057;-84
2022/05/24 03:49:12;;;;;;;2.40;0.93;;;14.40;99.90;;;;;;5065358;28;20048;-84
2022/05/24 03:51:57;;;;;;;2.55;1.02;;;14.30;99.90;;;;;;5063276;28;20514;-84
2022/05/24 03:54:29;;;;;;;4.75;1.23;;;14.40;99.90;;;;;;5063380;28;20045;-84
2022/05/24 04:00:13;;;;;;;1.75;1.10;;;14.20;99.90;;;;;;5066508;28;20052;-84
2022/05/24 04:02:45;;;;;;;1.45;1.08;;;14.50;99.90;;;;;;5064568;28;20731;-83
2022/05/24 04:05:19;;;;;;;1.00;0.80;;;14.60;99.90;;;;;;5065059;28;20047;-83
2022/05/24 04:07:59;;;;;;;0.95;0.70;;;14.40;99.90;;;;;;5064057;28;20052;-84
2022/05/24 04:10:33;;;;;;;1.65;0.95;;;14.50;99.90;;;;;;5065045;28;20045;-83
2022/05/24 04:13:22;;;;;;;6.20;1.02;;;14.80;99.90;;;;;;5067175;28;20120;-83
2022/05/24 04:15:53;;;;;;;4.78;1.13;;;14.10;99.90;;;;;;5062218;28;20052;-83
2022/05/24 04:18:29;;;;;;;3.42;0.98;;;14.40;99.90;;;;;;5062939;28;20099;-84
2022/05/24 04:21:14;;;;;;;2.53;1.35;;;14.70;99.90;;;;;;5065172;28;20131;-85
2022/05/24 04:23:43;;;;;;;1.55;0.73;;;14.30;99.90;;;;;;5063658;28;20573;-84
2022/05/24 04:26:17;;;;;;;4.95;1.48;;;14.30;99.90;;;;;;5063922;28;21082;-85
2022/05/24 04:28:58;;;;;;;2.35;0.70;;;13.70;99.90;;;;;;5080055;27;20047;-85
2022/05/24 04:31:27;;;;;;;2.55;1.00;;;14.50;99.90;;;;;;5062278;28;20044;-84
2022/05/24 04:33:59;;;;;;;5.78;1.33;;;14.50;99.90;;;;;;5064428;28;20124;-84
2022/05/24 04:36:25;;;;;;;5.15;2.20;;;14.50;99.90;;;;;;5065397;28;20048;-84
2022/05/24 04:39:00;;;;;;;3.08;1.08;;;14.50;99.90;;;;;;5064480;28;20076;-84
2022/05/24 04:44:23;;;;;;;2.95;1.00;;;14.50;99.90;;;;;;5063596;28;20202;-84
2022/05/24 04:47:07;;;;;;;1.50;0.85;;;14.40;99.90;;;;;;5062593;28;20129;-84
2022/05/24 04:49:44;;;;;;;1.95;1.10;;;14.30;99.90;;;;;;5065213;28;20041;-84
2022/05/24 04:52:17;;;;;;;2.65;1.20;;;14.30;99.90;;;;;;5062774;28;20045;-85
2022/05/24 04:54:51;;;;;;;1.13;0.90;;;14.20;99.90;;;;;;5064633;28;20044;-84
2022/05/24 04:57:38;;;;;;;1.83;0.85;;;14.20;99.90;;;;;;5063339;28;20118;-84
2022/05/24 05:00:14;;;;;;;1.92;1.00;;;14.20;99.90;;;;;;5064824;28;20055;-83
2022/05/24 05:02:56;;;;;;;3.22;1.50;;;14.20;99.90;;;;;;5078616;27;20102;-84
2022/05/24 05:05:58;;;;;;;3.45;0.77;;;13.90;99.90;;;;;;5071655;28;20036;-84
2022/05/24 05:08:43;;;;;;;2.13;0.93;;;13.90;99.90;;;;;;5067498;28;20498;-84
2022/05/24 05:11:20;;;;;;;2.42;0.85;;;14.00;99.90;;;;;;5071943;28;20240;-86
2022/05/24 05:14:10;;;;;;;4.38;1.80;;;14.20;99.90;;;;;;5066658;28;20048;-86
2022/05/24 05:16:57;;;;;;;1.98;0.90;;;14.10;99.90;;;;;;5066400;28;20581;-87
2022/05/24 05:19:47;;;;;;;2.75;1.23;;;13.90;99.90;;;;;;5066113;28;20562;-85
2022/05/24 05:22:34;;;;;;;1.83;1.13;;;13.80;99.90;;;;;;5069547;27;20172;-86
2022/05/24 05:25:06;;;;;;;2.92;0.95;;;14.60;99.90;;;;;;5067602;28;20124;-83
2022/05/24 05:27:50;;;;;;;2.58;1.30;;;14.20;99.90;;;;;;5065845;28;20041;-84
2022/05/24 05:33:42;;;;;;;2.60;1.35;;;14.40;99.90;;;;;;5064874;28;20041;-85
2022/05/24 05:36:11;;;;;;;1.77;1.05;;;14.50;99.90;;;;;;5072551;28;20106;-84
2022/05/24 05:38:45;;;;;;;1.58;0.95;;;14.60;99.90;;;;;;5063344;28;20040;-86
2022/05/24 05:41:18;;;;;;;2.58;0.93;;;14.70;99.90;;;;;;5068395;28;20048;-85
2022/05/24 05:44:18;;;;;;;1.52;1.25;;;14.70;99.90;;;;;;5076772;28;20041;-85
2022/05/24 05:46:54;;;;;;;2.53;1.40;;;14.70;99.90;;;;;;5065521;28;20143;-85
2022/05/24 05:49:46;;;;;;;1.70;1.05;;;14.80;99.90;;;;;;5080415;27;20052;-86
2022/05/24 05:52:22;;;;;;;1.50;1.23;;;14.70;99.90;;;;;;5064960;28;20067;-83
2022/05/24 05:54:54;;;;;;;2.88;1.25;;;14.60;99.90;;;;;;5060984;28;20045;-83
2022/05/24 05:57:30;;;;;;;1.88;1.25;;;14.20;99.90;;;;;;5075616;27;20533;-83
2022/05/24 06:00:08;;;;;;;3.28;1.38;;;14.50;99.90;;;;;;5064864;28;20132;-84
2022/05/24 06:02:41;;;;;;;3.55;1.30;;;14.40;99.90;;;;;;5061132;28;20041;-84
2022/05/24 06:05:22;;;;;;;4.38;1.42;;;14.30;99.90;;;;;;5063982;28;20048;-83
2022/05/24 06:08:00;;;;;;;3.17;1.38;;;14.30;99.90;;;;;;5059225;28;20044;-83
2022/05/24 06:14:36;;;;;;;3.50;1.20;;;13.80;99.90;;;;;;5058031;28;20098;-84
2022/05/24 06:17:41;;;;;;;;;;;;;;;;;;;;;
2022/05/24 06:20:29;;;;;;;1.83;1.15;;;14.90;99.90;;;;;;5063296;28;45297;-82
2022/05/24 06:23:24;;;;;;;2.60;0.93;;;14.90;99.90;;;;;;5066297;28;20058;-82
2022/05/24 06:26:19;;;;;;;2.97;0.80;;;14.10;99.90;;;;;;5077223;27;20056;-83
2022/05/24 06:29:04;;;;;;;1.77;1.08;;;14.70;99.90;;;;;;5067382;28;20049;-84
2022/05/24 06:31:50;;;;;;;2.35;1.00;;;15.40;99.90;;;;;;5064999;28;20037;-83
2022/05/24 06:34:19;;;;;;;3.83;1.10;;;14.60;99.90;;;;;;5073285;28;20131;-83
2022/05/24 06:37:10;;;;;;;1.42;0.90;;;14.40;99.90;;;;;;5065742;28;20531;-84
2022/05/24 06:40:00;;;;;;;0.95;0.80;;;14.70;99.90;;;;;;5065396;28;20053;-85
2022/05/24 06:42:34;;;;;;;1.30;0.80;;;14.40;99.90;;;;;;5032483;28;20057;-85
2022/05/24 06:45:09;;;;;;;1.45;1.08;;;14.70;99.90;;;;;;5012001;28;20555;-84
2022/05/24 06:47:44;;;;;;;5.35;1.98;;;15.00;99.90;;;;;;5019162;28;20049;-84
2022/05/24 06:50:21;;;;;;;2.53;1.75;;;14.50;99.90;;;;;;5035701;28;20050;-84
2022/05/24 06:53:18;;;;;;;4.15;0.90;;;14.40;99.90;;;;;;5034535;28;20049;-84
2022/05/24 06:55:55;;;;;;;2.53;0.85;;;14.50;99.90;;;;;;5016656;28;20105;-84
2022/05/24 06:58:34;;;;;;;3.35;1.10;;;14.50;99.90;;;;;;5012145;28;20104;-84
2022/05/24 07:03:59;;;;;;;3.70;0.95;;;14.50;99.90;;;;;;5035702;28;20619;-86
2022/05/24 07:06:45;;;;;;;2.92;1.10;;;14.60;99.90;;;;;;5042457;28;20097;-86
2022/05/24 07:09:29;;;;;;;3.38;0.80;;;14.40;99.90;;;;;;5067568;28;20094;-82
2022/05/24 07:12:14;;;;;;;2.45;1.20;;;15.20;99.90;;;;;;5075809;28;20052;-83
2022/05/24 07:14:41;;;;;;;1.83;0.90;;;14.70;99.90;;;;;;5067463;28;20071;-85
2022/05/24 07:17:10;;;;;;;2.63;0.82;;;14.60;99.90;;;;;;5070053;28;20549;-84
2022/05/24 07:19:36;;;;;;;1.42;0.80;;;14.60;99.90;;;;;;5068906;28;20056;-84
2022/05/24 07:22:28;;;;;;;0.52;0.52;;;14.50;99.90;;;;;;5067622;28;20131;-84
2022/05/24 07:25:17;;;;;;;2.30;1.30;;;14.50;99.90;;;;;;5066979;28;20052;-84
2022/05/24 07:27:53;;;;;;;1.38;0.90;;;14.20;99.90;;;;;;5067574;28;20056;-84
2022/05/24 07:30:30;;;;;;;1.75;1.17;;;14.40;99.90;;;;;;5069295;28;20037;-84
2022/05/24 07:33:06;;;;;;;0.70;0.70;;;14.40;99.90;;;;;;5069973;28;20076;-84
2022/05/24 07:36:08;;;;;;;2.40;1.10;;;14.70;99.90;;;;;;5070508;28;20052;-84
2022/05/24 07:38:44;;;;;;;7.63;1.30;;;14.50;99.90;;;;;;5040683;28;20049;-84
2022/05/24 07:47:03;;;;;;;3.45;1.17;;;14.80;99.90;;;;;;5083577;27;20147;-84
2022/05/24 07:49:29;;;;;;;4.90;1.13;;;14.60;99.90;;;;;;5072585;27;20045;-84
2022/05/24 07:51:58;;;;;;;2.17;0.73;;;14.60;99.90;;;;;;5072714;27;20048;-83
2022/05/24 07:54:33;;;;;;;0.82;0.70;;;14.60;99.90;;;;;;5072070;27;20033;-84
2022/05/24 07:57:16;;;;;;;1.65;0.75;;;14.70;99.90;;;;;;5089887;27;20044;-84
2022/05/24 08:00:08;;;;;;;2.45;0.73;;;14.80;99.90;;;;;;5072840;27;20044;-84
2022/05/24 08:02:39;;;;;;;;;;;14.50;99.90;;;;;;5071799;27;20555;-84
2022/05/24 08:05:15;;;;;;;1.38;0.85;;;15.10;99.90;;;;;;5089281;27;19924;-83
2022/05/24 08:07:51;;;;;;;2.58;1.00;;;15.10;99.90;;;;;;5072072;27;20036;-84
2022/05/24 08:10:25;;;;;;;3.67;0.90;;;15.00;99.90;;;;;;5078630;27;20726;-84
2022/05/24 08:13:10;;;;;;;0.98;0.90;;;15.10;99.90;;;;;;5091989;27;20111;-86
2022/05/24 08:15:50;;;;;;;2.22;0.85;;;15.10;99.90;;;;;;5073363;27;20052;-84
2022/05/24 08:18:32;;;;;;;2.75;1.17;;;15.20;99.90;;;;;;5079478;27;20143;-85
2022/05/24 08:21:03;;;;;;;1.17;0.88;;;15.60;99.90;;;;;;5069671;27;20643;-84
2022/05/24 08:23:33;;;;;;;2.30;0.98;;;16.00;99.90;;;;;;5088931;27;20843;-85
2022/05/24 08:26:02;;;;;;;5.05;1.17;;;15.70;99.90;;;;;;5070825;27;20056;-84
2022/05/24 08:28:33;;;;;;;2.42;1.05;;;15.80;99.90;;;;;;5070405;27;20056;-84
2022/05/24 08:31:05;;;;;;;3.00;0.95;;;15.90;99.90;;;;;;5076798;27;20070;-85
2022/05/24 08:33:34;;;;;;;3.60;1.50;;;15.80;99.90;;;;;;5070699;27;20135;-84
2022/05/24 08:36:09;;;;;;;4.38;1.98;;;15.80;99.90;;;;;;5087725;27;20110;-85
2022/05/24 08:38:46;;;;;;;0.82;0.75;;;15.90;99.90;;;;;;5073108;27;20693;-85
2022/05/24 08:41:27;;;;;;;1.77;1.08;;;16.60;99.90;;;;;;5067101;27;20123;-84
2022/05/24 08:50:38;;;;;;;2.63;1.10;;;16.30;99.90;;;;;;5087353;27;20053;-85
2022/05/24 08:53:16;;;;;;;1.63;0.85;;;16.20;99.90;;;;;;5068371;28;20560;-84
2022/05/24 08:55:45;;;;;;;4.25;1.35;;;16.50;99.90;;;;;;5076615;27;20053;-84
2022/05/24 08:58:43;;;;;;;3.50;0.90;;;16.40;99.90;;;;;;5069684;28;20044;-84
2022/05/24 09:01:42;;;;;;;0.95;0.70;;;16.30;99.90;;;;;;5068599;27;20633;-84
2022/05/24 09:04:34;;;;;;;;;;;;;;;;;;;;;
2022/05/24 09:07:48;;;;;;;1.17;0.80;;;15.80;99.90;;;;;;5089032;27;40517;-85
2022/05/24 09:10:28;;;;;;;1.48;0.88;;;15.70;99.90;;;;;;5070151;27;20746;-85
2022/05/24 09:13:38;;;;;;;1.80;0.85;;;15.80;99.90;;;;;;5085522;27;20040;-85
2022/05/24 09:16:15;;;;;;;3.38;1.20;;;16.10;99.90;;;;;;5084069;27;20044;-86
2022/05/24 09:19:18;;;;;;;3.13;0.98;;;16.30;99.90;;;;;;5093948;27;20028;-85
2022/05/24 09:22:10;;;;;;;1.85;0.77;;;16.40;99.90;;;;;;5086536;27;20481;-85
2022/05/24 09:25:00;;;;;;;1.40;0.95;;;16.40;99.90;;;;;;5080733;27;20052;-85
2022/05/24 09:27:28;;;;;;;3.30;0.80;;;16.40;99.90;;;;;;5073545;27;20040;-85
2022/05/24 09:30:17;;;;;;;2.05;0.77;;;15.60;99.90;;;;;;5072605;27;20113;-83
2022/05/24 09:33:29;;;;;;;4.55;0.93;;;16.60;99.90;;;;;;5073353;28;20124;-83
2022/05/24 09:36:33;;;;;;;1.77;0.70;;;16.70;99.90;;;;;;5070249;27;20670;-84
2022/05/24 09:39:39;;;;;;;3.45;0.90;;;16.90;99.90;;;;;;5071392;27;20191;-84
2022/05/24 09:42:31;;;;;;;3.83;0.80;;;17.00;99.90;;;;;;5088704;27;20043;-84
2022/05/24 09:48:18;;;;;;;1.35;0.80;;;17.10;99.90;;;;;;5049642;28;20133;-83
2022/05/24 09:50:55;;;;;;;1.75;1.02;;;17.30;99.90;;;;;;5047850;28;20076;-84
2022/05/24 09:53:31;;;;;;;4.25;0.85;;;17.30;99.90;;;;;;5045716;28;20041;-84
2022/05/24 09:56:24;;;;;;;1.98;1.40;;;17.80;99.90;;;;;;5046069;28;20044;-84
2022/05/24 09:59:28;;;;;;;2.38;0.77;;;17.50;99.90;;;;;;5051278;28;20045;-84
2022/05/24 10:02:39;;;;;;;0.93;0.70;;;17.50;99.90;;;;;;5053966;28;20045;-86
2022/05/24 10:05:44;;;;;;;1.75;0.77;;;17.70;99.90;;;;;;5048080;28;20044;-82
2022/05/24 10:08:44;;;;;;;1.83;0.55;;;17.70;99.90;;;;;;5033955;28;20056;-86
2022/05/24 10:11:55;;;;;;;1.17;0.50;;;17.50;99.90;;;;;;5048599;28;20617;-83
2022/05/24 10:14:49;;;;;;;3.08;0.88;;;17.30;99.90;;;;;;5046640;28;20511;-82
2022/05/24 10:18:10;;;;;;;1.88;0.85;;;17.50;99.90;;;;;;5053434;28;20049;-84
2022/05/24 10:21:17;;;;;;;0.80;0.77;;;17.60;99.90;;;;;;5048625;28;20776;-82
2022/05/24 10:24:26;;;;;;;1.48;0.50;;;17.80;99.90;;;;;;5047157;28;20048;-84
2022/05/24 10:41:30;;;;;;;1.02;0.70;;;17.80;99.90;;;;;;5049750;28;20301;-84
2022/05/24 10:44:24;;;;;;;0.82;0.57;;;17.90;99.90;;;;;;4980107;28;20057;-85
2022/05/24 10:47:16;;;;;;;1.45;0.55;;;17.70;99.90;;;;;;5058029;28;20541;-84
2022/05/24 10:54:19;;;;;;;4.40;1.08;;;17.70;99.80;;;;;;5004085;28;20125;-83
2022/05/24 10:57:03;;;;;;;1.15;0.75;;;17.70;99.90;;;;;;4981398;28;20047;-82
2022/05/24 10:59:56;;;;;;;1.17;0.73;;;17.80;99.90;;;;;;4993517;28;20072;-82
2022/05/24 11:02:59;;;;;;;4.40;0.80;;;18.00;99.80;;;;;;5065564;28;21018;-80
2022/05/24 11:05:49;;;;;;;5.32;1.80;;;18.10;99.50;;;;;;5066031;28;20526;-79
2022/05/24 11:09:04;;;;;;;2.45;0.60;;;18.00;99.40;;;;;;5068085;28;20044;-80
2022/05/24 11:12:00;;;;;;;1.05;0.60;;;18.20;99.20;;;;;;5067844;28;20041;-79
2022/05/24 11:14:42;;;;;;;0.93;0.60;;;17.90;98.90;;;;;;5066999;28;20037;-80
2022/05/24 11:17:26;;;;;;;;;;;17.80;98.50;;;;;;5068239;28;20061;-81
2022/05/24 11:19:59;;;;;;;4.60;1.35;;;17.80;98.40;;;;;;5080885;27;19921;-81
2022/05/24 11:22:51;;;;;;;1.48;0.75;;;17.10;98.40;;;;;;5067762;28;20106;-81
2022/05/24 11:25:52;;;;;;;0.73;0.65;;;18.30;98.10;;;;;;5065386;28;20134;-81
2022/05/24 11:28:30;;;;;;;2.70;0.73;;;18.10;98.10;;;;;;5013794;28;20702;-79
2022/05/24 11:31:29;;;;;;;3.03;1.02;;;18.30;98.00;;;;;;5068247;28;22022;-81
2022/05/24 11:34:12;;;;;;;2.65;0.70;;;18.40;97.50;;;;;;5068433;28;20477;-82
2022/05/24 11:37:37;;;;;;;1.20;1.10;;;18.30;97.30;;;;;;5067035;28;20037;-81
2022/05/24 11:40:42;;;;;;;2.38;1.23;;;18.20;96.80;;;;;;5054353;28;20317;-82
2022/05/24 11:43:43;;;;;;;3.65;0.75;;;18.40;96.90;;;;;;5034917;28;21266;-81
2022/05/24 11:46:35;;;;;;;0.50;0.45;;;18.50;97.00;;;;;;5066637;27;20049;-82
2022/05/24 11:49:09;;;;;;;2.20;0.63;;;18.60;96.30;;;;;;5076693;27;20079;-82
2022/05/24 11:52:32;;;;;;;5.82;0.90;;;18.50;96.20;;;;;;5086975;27;20079;-81
2022/05/24 11:55:09;;;;;;;1.58;0.57;;;18.30;95.80;;;;;;5051929;27;20056;-82
2022/05/24 11:58:01;;;;;;;1.58;0.80;;;18.20;95.60;;;;;;5070946;27;20052;-81
2022/05/24 12:01:02;;;;;;;2.47;0.98;;;18.10;95.90;;;;;;5072165;27;20036;-81
2022/05/24 12:10:13;;;;;;;0.52;0.45;;;18.30;95.70;;;;;;5087394;27;20052;-82
2022/05/24 12:13:05;;;;;;;;;;;;;;;;;;;;;
2022/05/24 12:15:47;;;;;;;;;;;18.20;95.50;;;;;;5089000;27;43255;-81
2022/05/24 12:18:42;;;;;;;2.88;0.70;;;18.10;95.50;;;;;;5070824;27;20423;-81
2022/05/24 12:21:59;;;;;;;1.27;0.60;;;18.20;95.60;;;;;;5070138;27;21040;-82
2022/05/24 12:24:41;;;;;;;1.88;0.52;;;18.10;95.70;;;;;;5057964;27;20135;-82
2022/05/24 12:27:28;;;;;;;;;;;18.30;95.50;;;;;;5070097;27;20060;-82
2022/05/24 12:30:17;;;;;;;8.38;1.90;;;18.50;95.60;;;;;;5070490;27;19971;-81
2022/05/24 12:35:38;;;;;;;1.05;0.65;;;19.00;95.30;;;;;;5089464;27;20040;-81
2022/05/24 12:38:32;;;;;;;1.67;0.70;;;18.90;94.60;;;;;;5077942;27;20051;-81
2022/05/24 12:41:38;;;;;;;2.03;0.80;;;19.00;94.40;;;;;;5069111;27;20047;-82
2022/05/24 12:44:21;;;;;;;2.03;0.73;;;18.40;94.10;;;;;;5069990;27;20362;-81
2022/05/24 12:47:04;;;;;;;1.05;0.60;;;18.90;94.10;;;;;;5064823;28;20045;-81
2022/05/24 12:49:36;;;;;;;0.82;0.45;;;18.80;94.20;;;;;;5068879;28;20067;-82
2022/05/24 12:53:05;;;;;;;1.70;1.30;;;18.90;94.30;;;;;;5066598;28;20644;-82
2022/05/24 12:55:58;;;;;;;4.00;0.70;;;18.90;94.20;;;;;;5066735;28;20140;-81
2022/05/24 12:58:55;;;;;;;1.58;0.80;;;19.10;94.30;;;;;;5067179;28;20052;-81
2022/05/24 13:01:25;;;;;;;2.05;1.02;;;19.50;94.20;;;;;;5065903;28;20119;-82
2022/05/24 13:04:27;;;;;;;;;;;;;;;;;;;;;
2022/05/24 13:07:21;;;;;;;2.65;0.85;;;19.80;93.10;;;;;;5067343;28;44488;-81
2022/05/24 13:10:22;;;;;;;1.35;0.50;;;19.50;92.60;;;;;;5049327;28;20052;-82
2022/05/24 13:13:20;;;;;;;1.80;0.82;;;19.20;92.80;;;;;;5065789;28;20098;-81
2022/05/24 13:16:14;;;;;;;3.53;0.73;;;19.20;93.10;;;;;;5066114;28;20048;-82
2022/05/24 13:18:57;;;;;;;2.70;0.85;;;19.10;92.90;;;;;;5067516;28;20519;-82
2022/05/24 13:25:16;;;;;;;1.58;0.65;;;19.40;92.60;;;;;;5009675;28;20046;-82
2022/05/24 13:28:05;;;;;;;2.00;0.80;;;19.40;92.00;;;;;;5059048;28;20583;-81
2022/05/24 13:33:55;;;;;;;3.35;1.50;;;19.40;92.10;;;;;;5066250;28;20052;-81
2022/05/24 13:36:49;;;;;;;1.92;0.60;;;19.50;91.90;;;;;;5068277;28;20083;-81
2022/05/24 13:40:01;;;;;;;2.05;0.60;;;19.60;92.00;;;;;;5069858;28;20568;-81
2022/05/24 13:42:36;;;;;;;1.98;0.60;;;19.70;91.60;;;;;;5069010;28;20059;-81
2022/05/24 13:45:24;;;;;;;0.88;0.70;;;19.80;91.60;;;;;;5085486;27;20556;-81
2022/05/24 13:48:00;;;;;;;1.83;0.82;;;19.90;91.50;;;;;;5069012;28;20135;-81
2022/05/24 13:50:33;;;;;;;1.40;0.55;;;20.10;91.00;;;;;;5068969;28;20048;-81
2022/05/24 13:53:23;;;;;;;3.60;0.52;;;20.00;91.20;;;;;;5070145;28;20076;-81
2022/05/24 13:56:04;;;;;;;0.22;0.20;;;20.10;91.10;;;;;;5068917;28;20074;-82
2022/05/24 13:59:10;;;;;;;2.90;0.60;;;20.10;91.00;;;;;;5087626;27;20068;-81
2022/05/24 14:01:55;;;;;;;0.22;0.22;;;20.20;91.10;;;;;;5070424;28;20144;-80
2022/05/24 14:05:06;;;;;;;0.63;0.40;;;20.20;90.80;;;;;;5071672;28;20051;-81
2022/05/24 14:07:55;;;;;;;1.20;1.00;;;20.30;90.50;;;;;;5071033;28;20044;-82
2022/05/24 14:10:41;;;;;;;0.30;0.30;;;20.30;90.00;;;;;;5071242;28;20102;-82
2022/05/24 14:13:13;;;;;;;3.35;0.70;;;20.40;89.90;;;;;;5069940;28;20220;-81
2022/05/24 14:16:02;;;;;;;0.95;0.47;;;20.30;90.00;;;;;;5028331;28;20132;-82
2022/05/24 14:18:37;;;;;;;6.63;1.27;;;20.30;89.90;;;;;;5010750;28;20054;-81
2022/05/24 14:21:18;;;;;;;1.77;0.80;;;20.60;90.10;;;;;;5026642;28;20042;-81
2022/05/24 14:24:03;;;;;;;2.90;0.70;;;20.50;89.80;;;;;;5019105;28;21004;-81
2022/05/24 14:26:46;;;;;;;0.80;0.68;;;20.60;89.60;;;;;;5029085;28;20049;-81
2022/05/24 14:29:34;;;;;;;2.03;0.70;;;20.60;89.00;;;;;;5019476;28;22055;-81
2022/05/24 14:32:14;;;;;;;1.30;0.60;;;20.60;88.80;;;;;;5029640;28;20099;-82
2022/05/24 14:34:48;;;;;;;1.48;0.45;;;20.50;88.70;;;;;;5029228;28;20648;-81
2022/05/24 14:37:26;;;;;;;0.57;0.40;;;20.60;88.70;;;;;;5012742;28;20046;-81
2022/05/24 14:39:58;;;;;;;2.38;1.15;;;20.60;88.60;;;;;;5012357;28;20534;-81
2022/05/24 14:42:49;;;;;;;1.05;0.40;;;20.70;88.50;;;;;;5025507;28;20129;-81
2022/05/24 14:45:33;;;;;;;0.38;0.35;;;20.70;88.60;;;;;;5016670;28;20754;-83
2022/05/24 14:52:00;;;;;;;0.90;0.50;;;20.30;87.40;;;;;;5089449;27;20055;-81
2022/05/24 14:54:39;;;;;;;2.03;0.75;;;20.20;87.40;;;;;;5078037;27;20584;-81
2022/05/24 14:57:33;;;;;;;2.67;0.65;;;20.00;87.40;;;;;;5079688;27;20176;-81
2022/05/24 15:00:02;;;;;;;0.70;0.50;;;20.20;87.30;;;;;;5073276;27;20859;-81
2022/05/24 15:02:49;;;;;;;3.30;2.00;;;20.30;87.40;;;;;;5070377;27;20064;-82
2022/05/24 15:05:15;;;;;;;1.23;0.75;;;20.30;87.00;;;;;;5090387;27;20596;-82
2022/05/24 15:16:35;;;;;;;0.47;0.47;;;19.90;85.30;;;;;;5089547;27;20048;-81
2022/05/24 15:19:25;;;;;;;0.82;0.80;;;19.50;85.10;;;;;;5071813;27;20049;-81
2022/05/24 15:21:54;;;;;;;2.88;0.57;;;20.10;85.50;;;;;;5070725;27;20048;-82
2022/05/24 15:24:45;;;;;;;2.78;0.50;;;20.00;85.60;;;;;;5074377;27;20522;-81
2022/05/24 15:27:19;;;;;;;0.73;0.60;;;20.10;85.60;;;;;;5071030;27;20036;-81
2022/05/24 15:30:11;;;;;;;1.83;0.45;;;20.10;85.80;;;;;;5078274;27;20072;-81
2022/05/24 15:32:55;;;;;;;0.98;0.60;;;20.00;85.70;;;;;;5071808;27;20063;-80
2022/05/24 15:35:40;;;;;;;1.27;0.60;;;20.10;85.80;;;;;;5071891;27;20082;-81
2022/05/24 15:38:45;;;;;;;1.92;0.60;;;20.20;86.10;;;;;;5087640;27;20591;-81
2022/05/24 15:41:12;;;;;;;0.60;0.60;;;20.30;86.00;;;;;;5070850;27;20048;-82
2022/05/24 15:43:46;;;;;;;2.22;1.15;;;20.40;85.90;;;;;;5077071;27;20098;-80
2022/05/24 15:46:27;;;;;;;0.25;0.25;;;20.40;85.30;;;;;;5070555;28;20048;-79
2022/05/24 15:49:28;;;;;;;1.85;0.40;;;20.50;85.40;;;;;;5070252;27;20036;-82